White Mountain, AK (99784)

1:32 AM AKDT on August 28, 2015 (GMT -0800)
White Mountain | | Change Station
CLOSE
Current Station
Airport
Location: White Mountain,
Elevation: 266 ft
Nearby Weather Stations

Elev 266 ft 64.69 °N, 163.41 °W | Updated 34 minutes ago

Clear
Clear
43 °F
Feels Like 38 °F
N
8
Wind Variable Wind from WSW

Today
High -- | Low -- °F
--% Chance of Precip.
Yesterday
High -- | Low -- °F
Precip. -- in
7:20 AM 10:25 PM
Waxing Gibbous, 97% visible
Pressure 30.17 in
Visibility 10.0 miles
Clouds Clear
Windchill 38 °F
Dew Point 39 °F
Humidity 86%
Rainfall 0.00 in
Snow Depth Not available.
UV 0 out of 12
Pollen Not available.
Air Quality Not available.
Flu Activity Not available.
METAR PAWM 280858Z AUTO 25007KT 10SM CLR 06/04 A3013 RMK AO2 SLP215 T00610039 55006
Pressure 30.17 in
Visibility 10.0 miles
Clouds Clear
Windchill 38 °F
Dew Point 39 °F
Humidity 86%
Rainfall 0.00 in
Snow Depth Not available.
UV 0 out of 12
Pollen Not available.
Air Quality Not available.
Flu Activity Not available.
METAR PAWM 280858Z AUTO 25007KT 10SM CLR 06/04 A3013 RMK AO2 SLP215 T00610039 55006

10-Day Weather Forecast

×

Almanac

Astronomy

Aug. 28, 2015 Rise Set
Actual Time
Civil Twilight
Nautical Twilight
Astronomical Twilight
Moon
Length of Visible Light
Length of Day
Tomorrow will be .
, % of the Moon is Illuminated

Today's Extremes

State Highs State Lows

Community

WunderPhotos

Upload Photos

1,850,352 photos uploaded!

WunderBlogs® & News

Nearby

Air Quality

  Air Quality AQ Index Pollutant
Not available.

Snow Depth

Station Depth Elevation

Earthquake Activity

City Distance Mag. Time & Date
Minimum magnitude displayed is 2.5.

Coastal Water Temperatures

Place Temperature

Stations

Nearby Weather Stations

Station Location Temp. Windchill Dew Point Humidity Wind Precip. Elev Updated Type